<?xml version="1.0" encoding="UTF-8"?><gpx xmlns="http://www.topografix.com/GPX/1/1"  creator="TraceDeTrail http://www.tracedetrail.fr" version="1.1" xmlns:xsi="http://www.w3.org/2001/XMLSchema-instance" xsi:schemaLocation="http://www.topografix.com/GPX/1/1 http://www.topografix.com/GPX/1/1/gpx.xsd "><metadata><name>Le Sentier du Petit Pâtre</name><link href="http://tracedetrail.fr/fr/trace/trace/86802"><text>methode de calcul : bdalti </text></link></metadata><trk><name>Le Sentier du Petit Pâtre sur TraceDeTrail.fr</name><trkseg><trkpt lat="45.14403" lon="2.59553"><ele>1048</ele><time>2000-01-01T02:27:22.000Z</time></trkpt><trkpt lat="45.14397" lon="2.59593"><ele>1051</ele><time>2000-01-01T02:27:32.000Z</time></trkpt><trkpt lat="45.14387" lon="2.59626"><ele>1053</ele><time>2000-01-01T02:27:42.000Z</time></trkpt><trkpt lat="45.1437" lon="2.59678"><ele>1056</ele><time>2000-01-01T02:27:52.000Z</time></trkpt><trkpt lat="45.1436" lon="2.597"><time>2000-01-01T02:28:02.000Z</time></trkpt><trkpt lat="45.14341" lon="2.59745"><ele>1063</ele><time>2000-01-01T02:28:12.000Z</time></trkpt><trkpt lat="45.14329" lon="2.59775"><ele>1066</ele><time>2000-01-01T02:28:22.000Z</time></trkpt><trkpt lat="45.14315" lon="2.59809"><ele>1069</ele><time>2000-01-01T02:28:32.000Z</time></trkpt><trkpt lat="45.14298" lon="2.59847"><ele>1073</ele><time>2000-01-01T02:28:42.000Z</time></trkpt><trkpt lat="45.14287" lon="2.59866"><time>2000-01-01T02:28:52.000Z</time></trkpt><trkpt lat="45.14277" lon="2.59877"><ele>1075</ele><time>2000-01-01T02:29:02.000Z</time></trkpt><trkpt lat="45.14266" lon="2.59902"><ele>1078</ele><time>2000-01-01T02:29:12.000Z</time></trkpt><trkpt lat="45.1425" lon="2.59932"><ele>1081</ele><time>2000-01-01T02:29:22.000Z</time></trkpt><trkpt lat="45.1424" lon="2.59949"><time>2000-01-01T02:29:32.000Z</time></trkpt><trkpt lat="45.14228" lon="2.59969"><ele>1081</ele><time>2000-01-01T02:29:42.000Z</time></trkpt><trkpt lat="45.14214" lon="2.59946"><ele>1081</ele><time>2000-01-01T02:29:52.000Z</time></trkpt><trkpt lat="45.14202" lon="2.59941"><time>2000-01-01T02:30:02.000Z</time></trkpt><trkpt lat="45.14183" lon="2.5994"><ele>1078</ele><time>2000-01-01T02:30:12.000Z</time></trkpt><trkpt lat="45.14172" lon="2.59945"><time>2000-01-01T02:30:22.000Z</time></trkpt><trkpt lat="45.14157" lon="2.59961"><ele>1078</ele><time>2000-01-01T02:30:32.000Z</time></trkpt><trkpt lat="45.14148" lon="2.59982"><time>2000-01-01T02:30:42.000Z</time></trkpt><trkpt lat="45.14151" lon="2.60009"><ele>1079</ele><time>2000-01-01T02:30:52.000Z</time></trkpt><trkpt lat="45.14144" lon="2.60015"><time>2000-01-01T02:31:02.000Z</time></trkpt><trkpt lat="45.14139" lon="2.60019"><time>2000-01-01T02:31:12.000Z</time></trkpt><trkpt lat="45.1414" lon="2.60024"><time>2000-01-01T02:31:22.000Z</time></trkpt><trkpt lat="45.14139" lon="2.60039"><ele>1081</ele><time>2000-01-01T02:31:32.000Z</time></trkpt><trkpt lat="45.14133" lon="2.60048"><time>2000-01-01T02:31:42.000Z</time></trkpt><trkpt lat="45.14111" lon="2.60064"><ele>1085</ele><time>2000-01-01T02:31:52.000Z</time></trkpt><trkpt lat="45.14095" lon="2.60059"><time>2000-01-01T02:32:02.000Z</time></trkpt><trkpt lat="45.14083" lon="2.60053"><ele>1085</ele><time>2000-01-01T02:32:12.000Z</time></trkpt><trkpt lat="45.14075" lon="2.60039"><time>2000-01-01T02:32:22.000Z</time></trkpt><trkpt lat="45.14064" lon="2.60034"><ele>1085</ele><time>2000-01-01T02:32:32.000Z</time></trkpt><trkpt lat="45.14052" lon="2.60028"><time>2000-01-01T02:32:42.000Z</time></trkpt><trkpt lat="45.14047" lon="2.60012"><ele>1085</ele><time>2000-01-01T02:32:52.000Z</time></trkpt><trkpt lat="45.14053" lon="2.59999"><time>2000-01-01T02:33:02.000Z</time></trkpt><trkpt lat="45.14059" lon="2.59987"><ele>1082</ele><time>2000-01-01T02:33:12.000Z</time></trkpt><trkpt lat="45.14062" lon="2.59976"><time>2000-01-01T02:33:22.000Z</time></trkpt><trkpt lat="45.14066" lon="2.59961"><ele>1080</ele><time>2000-01-01T02:33:32.000Z</time></trkpt><trkpt lat="45.14066" lon="2.59944"><time>2000-01-01T02:33:42.000Z</time></trkpt><trkpt lat="45.14065" lon="2.59929"><ele>1076</ele><time>2000-01-01T02:33:52.000Z</time></trkpt><trkpt lat="45.14058" lon="2.59913"><time>2000-01-01T02:34:02.000Z</time></trkpt><trkpt lat="45.14053" lon="2.599"><ele>1076</ele><time>2000-01-01T02:34:12.000Z</time></trkpt><trkpt lat="45.14034" lon="2.5991"><ele>1079</ele><time>2000-01-01T02:34:22.000Z</time></trkpt><trkpt lat="45.14016" lon="2.5992"><time>2000-01-01T02:34:32.000Z</time></trkpt><trkpt lat="45.14004" lon="2.59932"><ele>1084</ele><time>2000-01-01T02:34:42.000Z</time></trkpt><trkpt lat="45.13985" lon="2.59952"><ele>1088</ele><time>2000-01-01T02:34:52.000Z</time></trkpt><trkpt lat="45.13961" lon="2.59974"><ele>1092</ele><time>2000-01-01T02:35:02.000Z</time></trkpt><trkpt lat="45.13951" lon="2.59984"><time>2000-01-01T02:35:12.000Z</time></trkpt><trkpt lat="45.13937" lon="2.59981"><ele>1098</ele><time>2000-01-01T02:35:22.000Z</time></trkpt><trkpt lat="45.13927" lon="2.59999"><time>2000-01-01T02:35:32.000Z</time></trkpt><trkpt lat="45.13915" lon="2.60004"><ele>1101</ele><time>2000-01-01T02:35:42.000Z</time></trkpt><trkpt lat="45.13901" lon="2.6001"><time>2000-01-01T02:35:52.000Z</time></trkpt><trkpt lat="45.1389" lon="2.60027"><ele>1108</ele><time>2000-01-01T02:36:02.000Z</time></trkpt><trkpt lat="45.13884" lon="2.60038"><time>2000-01-01T02:36:12.000Z</time></trkpt><trkpt lat="45.13874" lon="2.60048"><ele>1112</ele><time>2000-01-01T02:36:22.000Z</time></trkpt><trkpt lat="45.13854" lon="2.60086"><ele>1116</ele><time>2000-01-01T02:36:32.000Z</time></trkpt><trkpt lat="45.13846" lon="2.60103"><time>2000-01-01T02:36:42.000Z</time></trkpt><trkpt lat="45.13817" lon="2.60128"><ele>1128</ele><time>2000-01-01T02:36:52.000Z</time></trkpt><trkpt lat="45.13785" lon="2.60152"><ele>1138</ele><time>2000-01-01T02:37:02.000Z</time></trkpt><trkpt lat="45.1378" lon="2.60173"><time>2000-01-01T02:37:12.000Z</time></trkpt><trkpt lat="45.13767" lon="2.60185"><ele>1145</ele><time>2000-01-01T02:37:22.000Z</time></trkpt><trkpt lat="45.13759" lon="2.60195"><time>2000-01-01T02:37:32.000Z</time></trkpt><trkpt lat="45.13751" lon="2.60217"><ele>1151</ele><time>2000-01-01T02:37:42.000Z</time></trkpt><trkpt lat="45.13737" lon="2.60239"><ele>1160</ele><time>2000-01-01T02:37:52.000Z</time></trkpt><trkpt lat="45.13737" lon="2.60218"><time>2000-01-01T02:38:02.000Z</time></trkpt><trkpt lat="45.13738" lon="2.60187"><ele>1163</ele><time>2000-01-01T02:38:12.000Z</time></trkpt><trkpt lat="45.13747" lon="2.60129"><ele>1163</ele><time>2000-01-01T02:38:22.000Z</time></trkpt><trkpt lat="45.13751" lon="2.60083"><ele>1164</ele><time>2000-01-01T02:38:32.000Z</time></trkpt><trkpt lat="45.1375" lon="2.60065"><time>2000-01-01T02:38:42.000Z</time></trkpt><trkpt lat="45.13748" lon="2.60056"><ele>1165</ele><time>2000-01-01T02:38:52.000Z</time></trkpt><trkpt lat="45.13725" lon="2.60067"><ele>1169</ele><time>2000-01-01T02:39:02.000Z</time></trkpt><trkpt lat="45.13709" lon="2.60085"><ele>1173</ele><time>2000-01-01T02:39:12.000Z</time></trkpt><trkpt lat="45.13691" lon="2.60099"><ele>1176</ele><time>2000-01-01T02:39:22.000Z</time></trkpt><trkpt lat="45.13677" lon="2.60126"><ele>1183</ele><time>2000-01-01T02:39:32.000Z</time></trkpt><trkpt lat="45.13664" lon="2.60139"><time>2000-01-01T02:39:42.000Z</time></trkpt><trkpt lat="45.13651" lon="2.60157"><ele>1190</ele><time>2000-01-01T02:39:52.000Z</time></trkpt><trkpt lat="45.13638" lon="2.60172"><time>2000-01-01T02:40:02.000Z</time></trkpt><trkpt lat="45.13621" lon="2.60193"><ele>1198</ele><time>2000-01-01T02:40:12.000Z</time></trkpt><trkpt lat="45.13608" lon="2.60208"><time>2000-01-01T02:40:22.000Z</time></trkpt><trkpt lat="45.13585" lon="2.60234"><ele>1206</ele><time>2000-01-01T02:40:32.000Z</time></trkpt><trkpt lat="45.13565" lon="2.60272"><ele>1212</ele><time>2000-01-01T02:40:42.000Z</time></trkpt><trkpt lat="45.13569" lon="2.60285"><time>2000-01-01T02:40:52.000Z</time></trkpt><trkpt lat="45.13574" lon="2.60294"><time>2000-01-01T02:41:02.000Z</time></trkpt><trkpt lat="45.13569" lon="2.60309"><ele>1215</ele><time>2000-01-01T02:41:12.000Z</time></trkpt><trkpt lat="45.13568" lon="2.60325"><time>2000-01-01T02:41:22.000Z</time></trkpt><trkpt lat="45.13565" lon="2.60332"><time>2000-01-01T02:41:32.000Z</time></trkpt><trkpt lat="45.13569" lon="2.60351"><ele>1220</ele><time>2000-01-01T02:41:42.000Z</time></trkpt><trkpt lat="45.13573" lon="2.60374"><time>2000-01-01T02:41:52.000Z</time></trkpt><trkpt lat="45.13585" lon="2.60411"><ele>1222</ele><time>2000-01-01T02:42:02.000Z</time></trkpt><trkpt lat="45.13595" lon="2.60448"><ele>1223</ele><time>2000-01-01T02:42:12.000Z</time></trkpt><trkpt lat="45.13601" lon="2.60492"><ele>1224</ele><time>2000-01-01T02:42:22.000Z</time></trkpt><trkpt lat="45.13609" lon="2.60511"><time>2000-01-01T02:42:32.000Z</time></trkpt><trkpt lat="45.13623" lon="2.60552"><ele>1224</ele><time>2000-01-01T02:42:42.000Z</time></trkpt><trkpt lat="45.1364" lon="2.60588"><ele>1223</ele><time>2000-01-01T02:42:52.000Z</time></trkpt><trkpt lat="45.13654" lon="2.60608"><ele>1222</ele><time>2000-01-01T02:43:02.000Z</time></trkpt><trkpt lat="45.13677" lon="2.60634"><ele>1221</ele><time>2000-01-01T02:43:12.000Z</time></trkpt><trkpt lat="45.13695" lon="2.60676"><ele>1221</ele><time>2000-01-01T02:43:22.000Z</time></trkpt><trkpt lat="45.13709" lon="2.6073"><ele>1221</ele><time>2000-01-01T02:43:32.000Z</time></trkpt><trkpt lat="45.13715" lon="2.60761"><ele>1220</ele><time>2000-01-01T02:43:42.000Z</time></trkpt><trkpt lat="45.13731" lon="2.60806"><ele>1213</ele><time>2000-01-01T02:43:52.000Z</time></trkpt><trkpt lat="45.13749" lon="2.60848"><ele>1211</ele><time>2000-01-01T02:44:02.000Z</time></trkpt><trkpt lat="45.13758" lon="2.60877"><ele>1208</ele><time>2000-01-01T02:44:12.000Z</time></trkpt><trkpt lat="45.13762" lon="2.60905"><ele>1205</ele><time>2000-01-01T02:44:22.000Z</time></trkpt><trkpt lat="45.13775" lon="2.60942"><ele>1202</ele><time>2000-01-01T02:44:32.000Z</time></trkpt><trkpt lat="45.13783" lon="2.60979"><ele>1199</ele><time>2000-01-01T02:44:42.000Z</time></trkpt><trkpt lat="45.13791" lon="2.61015"><ele>1195</ele><time>2000-01-01T02:44:52.000Z</time></trkpt><trkpt lat="45.13801" lon="2.61039"><ele>1193</ele><time>2000-01-01T02:45:02.000Z</time></trkpt><trkpt lat="45.13801" lon="2.61052"><time>2000-01-01T02:45:12.000Z</time></trkpt><trkpt lat="45.13813" lon="2.61081"><ele>1191</ele><time>2000-01-01T02:45:22.000Z</time></trkpt><trkpt lat="45.1383" lon="2.61101"><ele>1190</ele><time>2000-01-01T02:45:32.000Z</time></trkpt><trkpt lat="45.13842" lon="2.61108"><time>2000-01-01T02:45:42.000Z</time></trkpt><trkpt lat="45.13859" lon="2.611"><ele>1186</ele><time>2000-01-01T02:45:52.000Z</time></trkpt><trkpt lat="45.13883" lon="2.61081"><ele>1183</ele><time>2000-01-01T02:46:02.000Z</time></trkpt><trkpt lat="45.13893" lon="2.61046"><ele>1182</ele><time>2000-01-01T02:46:12.000Z</time></trkpt><trkpt lat="45.13899" lon="2.61023"><time>2000-01-01T02:46:22.000Z</time></trkpt><trkpt lat="45.1391" lon="2.60975"><ele>1177</ele><time>2000-01-01T02:46:32.000Z</time></trkpt><trkpt lat="45.13922" lon="2.60948"><ele>1174</ele><time>2000-01-01T02:46:42.000Z</time></trkpt><trkpt lat="45.13935" lon="2.60925"><ele>1171</ele><time>2000-01-01T02:46:52.000Z</time></trkpt><trkpt lat="45.1394" lon="2.60912"><time>2000-01-01T02:47:02.000Z</time></trkpt><trkpt lat="45.1395" lon="2.60893"><ele>1168</ele><time>2000-01-01T02:47:12.000Z</time></trkpt><trkpt lat="45.13966" lon="2.6088"><time>2000-01-01T02:47:22.000Z</time></trkpt><trkpt lat="45.1399" lon="2.60872"><ele>1162</ele><time>2000-01-01T02:47:32.000Z</time></trkpt><trkpt lat="45.14005" lon="2.60851"><ele>1160</ele><time>2000-01-01T02:47:42.000Z</time></trkpt><trkpt lat="45.14021" lon="2.60829"><ele>1157</ele><time>2000-01-01T02:47:52.000Z</time></trkpt><trkpt lat="45.14034" lon="2.60806"><ele>1155</ele><time>2000-01-01T02:48:02.000Z</time></trkpt><trkpt lat="45.14044" lon="2.60788"><time>2000-01-01T02:48:12.000Z</time></trkpt><trkpt lat="45.14053" lon="2.60761"><ele>1151</ele><time>2000-01-01T02:48:22.000Z</time></trkpt><trkpt lat="45.14063" lon="2.60733"><ele>1148</ele><time>2000-01-01T02:48:32.000Z</time></trkpt><trkpt lat="45.14069" lon="2.60718"><time>2000-01-01T02:48:42.000Z</time></trkpt><trkpt lat="45.1408" lon="2.6069"><ele>1144</ele><time>2000-01-01T02:48:52.000Z</time></trkpt><trkpt lat="45.14087" lon="2.60639"><ele>1140</ele><time>2000-01-01T02:49:02.000Z</time></trkpt><trkpt lat="45.14088" lon="2.60614"><time>2000-01-01T02:49:12.000Z</time></trkpt><trkpt lat="45.14083" lon="2.60573"><ele>1136</ele><time>2000-01-01T02:49:22.000Z</time></trkpt><trkpt lat="45.14079" lon="2.6055"><time>2000-01-01T02:49:32.000Z</time></trkpt><trkpt lat="45.14061" lon="2.60533"><ele>1131</ele><time>2000-01-01T02:49:42.000Z</time></trkpt><trkpt lat="45.14042" lon="2.60519"><ele>1130</ele><time>2000-01-01T02:49:52.000Z</time></trkpt><trkpt lat="45.14028" lon="2.60493"><ele>1129</ele><time>2000-01-01T02:50:02.000Z</time></trkpt><trkpt lat="45.14027" lon="2.60475"><time>2000-01-01T02:50:12.000Z</time></trkpt><trkpt lat="45.14032" lon="2.60437"><ele>1122</ele><time>2000-01-01T02:50:22.000Z</time></trkpt><trkpt lat="45.14039" lon="2.60405"><ele>1119</ele><time>2000-01-01T02:50:32.000Z</time></trkpt><trkpt lat="45.14045" lon="2.6038"><time>2000-01-01T02:50:42.000Z</time></trkpt><trkpt lat="45.1405" lon="2.60354"><ele>1114</ele><time>2000-01-01T02:50:52.000Z</time></trkpt><trkpt lat="45.14064" lon="2.60333"><ele>1111</ele><time>2000-01-01T02:51:02.000Z</time></trkpt><trkpt lat="45.14078" lon="2.60315"><ele>1108</ele><time>2000-01-01T02:51:12.000Z</time></trkpt><trkpt lat="45.14088" lon="2.60311"><time>2000-01-01T02:51:22.000Z</time></trkpt><trkpt lat="45.14101" lon="2.6031"><ele>1108</ele><time>2000-01-01T02:51:32.000Z</time></trkpt><trkpt lat="45.14113" lon="2.60322"><time>2000-01-01T02:51:42.000Z</time></trkpt><trkpt lat="45.14125" lon="2.60327"><ele>1106</ele><time>2000-01-01T02:51:52.000Z</time></trkpt><trkpt lat="45.14135" lon="2.60319"><time>2000-01-01T02:52:02.000Z</time></trkpt><trkpt lat="45.14142" lon="2.6029"><ele>1105</ele><time>2000-01-01T02:52:12.000Z</time></trkpt><trkpt lat="45.14155" lon="2.60248"><ele>1101</ele><time>2000-01-01T02:52:22.000Z</time></trkpt><trkpt lat="45.1416" lon="2.60216"><ele>1099</ele><time>2000-01-01T02:52:32.000Z</time></trkpt><trkpt lat="45.14158" lon="2.60174"><ele>1096</ele><time>2000-01-01T02:52:42.000Z</time></trkpt><trkpt lat="45.14159" lon="2.60134"><ele>1092</ele><time>2000-01-01T02:52:52.000Z</time></trkpt><trkpt lat="45.14165" lon="2.60107"><ele>1089</ele><time>2000-01-01T02:53:02.000Z</time></trkpt><trkpt lat="45.14171" lon="2.60082"><time>2000-01-01T02:53:12.000Z</time></trkpt><trkpt lat="45.1419" lon="2.60035"><ele>1084</ele><time>2000-01-01T02:53:22.000Z</time></trkpt><trkpt lat="45.142" lon="2.60011"><ele>1084</ele><time>2000-01-01T02:53:32.000Z</time></trkpt><trkpt lat="45.14212" lon="2.59992"><time>2000-01-01T02:53:42.000Z</time></trkpt><trkpt lat="45.14228" lon="2.59969"><ele>1083</ele><time>2000-01-01T02:53:52.000Z</time></trkpt><trkpt lat="45.14243" lon="2.59955"><time>2000-01-01T02:54:02.000Z</time></trkpt><trkpt lat="45.14253" lon="2.59944"><ele>1082</ele><time>2000-01-01T02:54:12.000Z</time></trkpt><trkpt lat="45.14262" lon="2.59899"><ele>1077</ele><time>2000-01-01T02:54:22.000Z</time></trkpt><trkpt lat="45.14271" lon="2.59877"><time>2000-01-01T02:54:32.000Z</time></trkpt><trkpt lat="45.14286" lon="2.59853"><ele>1073</ele><time>2000-01-01T02:54:42.000Z</time></trkpt><trkpt lat="45.14303" lon="2.59825"><ele>1071</ele><time>2000-01-01T02:54:52.000Z</time></trkpt><trkpt lat="45.1432" lon="2.59788"><ele>1067</ele><time>2000-01-01T02:55:02.000Z</time></trkpt><trkpt lat="45.14331" lon="2.59761"><ele>1065</ele><time>2000-01-01T02:55:12.000Z</time></trkpt><trkpt lat="45.1435" lon="2.59717"><ele>1059</ele><time>2000-01-01T02:55:22.000Z</time></trkpt><trkpt lat="45.14364" lon="2.59685"><ele>1057</ele><time>2000-01-01T02:55:32.000Z</time></trkpt><trkpt lat="45.14384" lon="2.5964"><ele>1055</ele><time>2000-01-01T02:55:42.000Z</time></trkpt><trkpt lat="45.14394" lon="2.59618"><time>2000-01-01T02:55:52.000Z</time></trkpt><trkpt lat="45.14402" lon="2.59578"><ele>1050</ele><time>2000-01-01T02:56:02.000Z</time></trkpt><trkpt lat="45.14403" lon="2.59553"><ele>1048</ele><time>2000-01-01T02:56:12.000Z</time></trkpt></trkseg></trk></gpx>